Acampo, California
Current Conditions -  °F | °C
As of 11:55 PM on Monday 20 Oct 2014 (Local Time) from KSCK Reporting Station
Clear Clear  
Wind Chill: 12°   Ceiling: Unl
Heat Index: 12°   Visibility: 10mi
Dew Point:   Wind: 6mph
Humidity: 80%   Direction: 240°WSW
Pressure: 30.05"   Gusts: NA
Location:  38.17°N, 121.28°W
Report Text: KSCK 210655Z AUTO 24005KT 10SM CLR 12/09 A3005 RMK AO2 SLP175 T01220089
Loading
Personal Weather Stations






























Interactive Weather Map
Tropical Storm Tracking
New forecast layout! Learn more

10-Day Weather Forecast

Advertisements
Track Severe Weather on mobile